createdAt,value
2018-11-14T00:00:57.058Z,5.10
2018-11-14T00:03:24.795Z,5.10
2018-11-14T00:05:52.581Z,5.00
2018-11-14T00:08:20.319Z,5.00
2018-11-14T00:10:48.124Z,5.10
2018-11-14T00:13:15.878Z,5.00
2018-11-14T00:15:43.656Z,5.00
2018-11-14T00:18:11.386Z,4.90
2018-11-14T00:20:39.190Z,4.90
2018-11-14T00:23:06.940Z,4.90
2018-11-14T00:25:34.706Z,4.90
2018-11-14T00:28:02.895Z,4.90
2018-11-14T00:30:30.250Z,4.90
2018-11-14T00:32:58.076Z,4.90
2018-11-14T00:35:25.878Z,4.80
2018-11-14T00:37:53.654Z,4.70
2018-11-14T00:40:21.663Z,4.70
2018-11-14T00:42:49.846Z,4.80
2018-11-14T00:45:19.136Z,4.80
2018-11-14T00:47:47.726Z,4.80
2018-11-14T00:50:16.378Z,4.80
2018-11-14T00:52:44.699Z,4.80
2018-11-14T00:55:14.567Z,4.70
2018-11-14T00:57:43.674Z,4.70
2018-11-14T01:00:13.410Z,4.70
2018-11-14T01:02:41.234Z,4.70
2018-11-14T01:05:10.096Z,4.60
2018-11-14T01:07:37.866Z,4.70
2018-11-14T01:10:06.815Z,4.60
2018-11-14T01:12:34.570Z,4.60
2018-11-14T01:15:02.396Z,4.50
2018-11-14T01:17:30.214Z,4.60
2018-11-14T01:19:58.003Z,4.60
2018-11-14T01:22:25.799Z,4.50
2018-11-14T01:24:53.628Z,4.50
2018-11-14T01:27:21.461Z,4.50
2018-11-14T01:29:55.645Z,4.40
2018-11-14T01:32:23.415Z,4.40
2018-11-14T01:34:51.195Z,4.40
2018-11-14T01:37:18.991Z,4.40
2018-11-14T01:39:46.745Z,4.40
2018-11-14T01:42:14.524Z,4.40
2018-11-14T01:44:42.307Z,4.50
2018-11-14T01:47:10.107Z,4.40
2018-11-14T01:49:37.821Z,4.40
2018-11-14T01:52:05.655Z,4.50
2018-11-14T01:54:33.430Z,4.50
2018-11-14T01:57:01.290Z,4.50
2018-11-14T01:59:29.038Z,4.40
2018-11-14T02:01:56.919Z,4.40
2018-11-14T02:04:24.672Z,4.40
2018-11-14T02:06:52.463Z,4.40
2018-11-14T02:09:20.278Z,4.40
2018-11-14T02:11:48.124Z,4.40
2018-11-14T02:14:15.910Z,4.40
2018-11-14T02:16:43.697Z,4.30
2018-11-14T02:19:11.487Z,4.20
2018-11-14T02:21:39.250Z,4.30
2018-11-14T02:24:07.018Z,4.20
2018-11-14T02:26:34.794Z,4.20
2018-11-14T02:29:02.583Z,4.20
2018-11-14T02:31:30.323Z,4.20
2018-11-14T02:33:58.149Z,4.10
2018-11-14T02:36:25.893Z,4.10
2018-11-14T02:38:53.705Z,4.00
2018-11-14T02:41:21.470Z,4.10
2018-11-14T02:43:49.235Z,4.10
2018-11-14T02:46:16.978Z,4.20
2018-11-14T02:48:44.779Z,4.10
2018-11-14T02:51:30.090Z,4.10
2018-11-14T02:53:57.855Z,4.00
2018-11-14T02:56:25.606Z,4.00
2018-11-14T02:58:53.367Z,4.10
2018-11-14T03:01:21.338Z,4.00
2018-11-14T03:03:49.188Z,4.00
2018-11-14T03:06:16.979Z,4.00
2018-11-14T03:08:44.798Z,4.00
2018-11-14T03:11:12.543Z,4.00
2018-11-14T03:13:40.325Z,4.00
2018-11-14T03:16:08.159Z,4.00
2018-11-14T03:18:35.927Z,3.90
2018-11-14T03:21:04.003Z,4.00
2018-11-14T03:23:31.750Z,4.00
2018-11-14T03:25:59.555Z,3.90
2018-11-14T03:28:27.402Z,3.90
2018-11-14T03:30:55.186Z,3.80
2018-11-14T03:33:22.968Z,3.80
2018-11-14T03:35:56.143Z,3.70
2018-11-14T03:38:23.908Z,3.70
2018-11-14T03:40:51.682Z,3.70
2018-11-14T03:43:19.415Z,3.70
2018-11-14T03:45:47.186Z,3.60
2018-11-14T03:48:14.918Z,3.70
2018-11-14T03:50:42.695Z,3.60
2018-11-14T03:53:10.471Z,3.60
2018-11-14T03:55:38.400Z,3.60
2018-11-14T03:58:06.159Z,3.60
2018-11-14T04:00:33.931Z,3.60
2018-11-14T04:03:01.751Z,3.50
2018-11-14T04:05:29.562Z,3.50
2018-11-14T04:07:57.308Z,3.40
2018-11-14T04:10:25.056Z,3.30
2018-11-14T04:12:53.278Z,3.40
2018-11-14T04:15:21.072Z,3.40
2018-11-14T04:17:49.514Z,3.40
2018-11-14T04:20:17.887Z,3.40
2018-11-14T04:22:46.297Z,3.40
2018-11-14T04:25:15.480Z,3.40
2018-11-14T04:27:44.087Z,3.30
2018-11-14T04:30:13.475Z,3.20
2018-11-14T04:32:41.835Z,3.20
2018-11-14T04:35:11.173Z,3.20
2018-11-14T04:37:39.195Z,3.20
2018-11-14T04:40:08.049Z,3.20
2018-11-14T04:42:36.030Z,3.20
2018-11-14T04:45:03.847Z,3.20
2018-11-14T04:47:31.623Z,3.20
2018-11-14T04:49:59.395Z,3.20
2018-11-14T04:52:27.144Z,3.20
2018-11-14T04:54:54.939Z,3.20
2018-11-14T04:57:22.676Z,3.10
2018-11-14T04:59:50.475Z,3.10
2018-11-14T05:02:18.267Z,3.10
2018-11-14T05:04:46.055Z,3.00
2018-11-14T05:07:13.851Z,3.10
2018-11-14T05:09:41.608Z,3.10
2018-11-14T05:12:09.400Z,3.00
2018-11-14T05:14:37.191Z,3.00
2018-11-14T05:17:05.799Z,3.00
2018-11-14T05:19:33.586Z,3.00
2018-11-14T05:22:01.403Z,2.90
2018-11-14T05:24:29.214Z,2.90
2018-11-14T05:26:56.994Z,3.00
2018-11-14T05:29:24.751Z,3.00
2018-11-14T05:31:52.598Z,2.90
2018-11-14T05:34:20.384Z,2.90
2018-11-14T05:36:48.206Z,2.90
2018-11-14T05:39:15.966Z,2.80
2018-11-14T05:41:43.765Z,2.80
2018-11-14T05:44:11.507Z,2.80
2018-11-14T05:46:39.323Z,2.80
2018-11-14T05:49:07.073Z,2.80
2018-11-14T05:51:35.181Z,2.80
2018-11-14T05:54:02.943Z,2.80
2018-11-14T05:56:30.731Z,2.80
2018-11-14T05:58:58.499Z,2.80
2018-11-14T06:01:26.301Z,2.80
2018-11-14T06:03:54.056Z,2.80
2018-11-14T06:06:21.847Z,2.90
2018-11-14T06:08:49.923Z,2.90
2018-11-14T06:11:17.693Z,3.00
2018-11-14T06:13:45.436Z,2.90
2018-11-14T06:16:13.258Z,2.80
2018-11-14T06:18:41.015Z,2.90
2018-11-14T06:21:08.822Z,2.90
2018-11-14T06:23:36.595Z,3.00
2018-11-14T06:26:04.421Z,3.10
2018-11-14T06:28:32.173Z,3.10
2018-11-14T06:30:59.922Z,3.10
2018-11-14T06:33:27.739Z,3.10
2018-11-14T06:35:55.493Z,3.20
2018-11-14T06:38:23.287Z,3.30
2018-11-14T06:40:51.046Z,3.30
2018-11-14T06:43:18.856Z,3.20
2018-11-14T06:45:46.641Z,3.30
2018-11-14T06:48:14.455Z,3.30
2018-11-14T06:50:42.198Z,3.40
2018-11-14T06:53:11.320Z,3.50
2018-11-14T06:55:40.012Z,3.50
2018-11-14T06:58:08.741Z,3.50
2018-11-14T07:00:37.500Z,3.60
2018-11-14T07:03:08.718Z,3.60
2018-11-14T07:05:37.579Z,3.60
2018-11-14T07:08:06.612Z,3.60
2018-11-14T07:10:36.230Z,3.70
2018-11-14T07:13:06.562Z,3.90
2018-11-14T07:15:35.695Z,4.00
2018-11-14T07:18:04.643Z,4.00
2018-11-14T07:20:34.266Z,3.90
2018-11-14T07:23:03.408Z,4.10
2018-11-14T07:25:32.159Z,4.20
2018-11-14T07:28:08.253Z,4.20
2018-11-14T07:30:37.473Z,4.30
2018-11-14T07:33:07.672Z,4.50
2018-11-14T07:35:36.681Z,4.70
2018-11-14T07:38:42.155Z,4.80
2018-11-14T07:41:11.024Z,5.00
2018-11-14T07:43:39.368Z,5.10
2018-11-14T07:46:07.502Z,5.00
2018-11-14T07:48:35.460Z,5.00
2018-11-14T07:51:03.434Z,4.80
2018-11-14T07:53:31.240Z,4.80
2018-11-14T07:55:59.014Z,4.70
2018-11-14T07:58:26.772Z,4.80
2018-11-14T08:00:55.308Z,4.90
2018-11-14T08:03:23.098Z,5.00
2018-11-14T08:05:50.940Z,5.30
2018-11-14T08:08:18.829Z,5.40
2018-11-14T08:10:46.627Z,5.40
2018-11-14T08:13:14.995Z,5.50
2018-11-14T08:15:43.191Z,5.50
2018-11-14T08:18:10.971Z,5.70
2018-11-14T08:20:38.710Z,5.80
2018-11-14T08:23:06.491Z,6.00
2018-11-14T08:25:34.258Z,6.20
2018-11-14T08:28:02.027Z,6.10
2018-11-14T08:30:29.862Z,6.20
2018-11-14T08:32:57.615Z,6.20
2018-11-14T08:35:25.728Z,6.20
2018-11-14T08:37:53.507Z,6.10
2018-11-14T08:40:21.288Z,6.20
2018-11-14T08:42:49.050Z,6.10
2018-11-14T08:45:16.838Z,6.10
2018-11-14T08:47:44.574Z,6.20
2018-11-14T08:50:15.293Z,6.40
2018-11-14T08:52:43.308Z,6.20
2018-11-14T08:55:11.992Z,6.30
2018-11-14T08:57:40.722Z,6.20
2018-11-14T09:00:10.930Z,6.30
2018-11-14T09:02:38.718Z,6.50
2018-11-14T09:05:07.402Z,6.60
2018-11-14T09:07:35.209Z,6.60
2018-11-14T09:10:02.977Z,6.60
2018-11-14T09:12:30.789Z,6.70
2018-11-14T09:14:58.573Z,6.80
2018-11-14T09:17:26.339Z,6.80
2018-11-14T09:19:54.155Z,6.90
2018-11-14T09:22:21.898Z,6.90
2018-11-14T09:24:49.777Z,6.90
2018-11-14T09:27:17.479Z,6.90
2018-11-14T09:29:45.263Z,6.90
2018-11-14T09:32:13.016Z,6.90
2018-11-14T09:34:40.801Z,6.90
2018-11-14T09:37:08.618Z,7.10
2018-11-14T09:39:36.399Z,7.20
2018-11-14T09:42:05.167Z,7.50
2018-11-14T09:44:33.158Z,7.50
2018-11-14T09:47:02.556Z,7.60
2018-11-14T09:49:30.559Z,7.70
2018-11-14T09:51:58.271Z,7.60
2018-11-14T09:54:26.046Z,7.70
2018-11-14T09:56:53.991Z,7.60
2018-11-14T09:59:21.643Z,7.60
2018-11-14T10:01:49.439Z,7.60
2018-11-14T10:04:17.299Z,7.60
2018-11-14T10:06:45.064Z,7.80
2018-11-14T10:09:13.841Z,8.00
2018-11-14T10:11:41.624Z,7.90
2018-11-14T10:14:10.603Z,7.80
2018-11-14T10:16:38.423Z,7.80
2018-11-14T10:19:07.147Z,8.00
2018-11-14T10:21:35.102Z,8.00
2018-11-14T10:24:02.867Z,8.20
2018-11-14T10:26:30.654Z,7.80
2018-11-14T10:28:58.410Z,7.90
2018-11-14T10:31:26.499Z,7.60
2018-11-14T10:33:54.271Z,7.60
2018-11-14T10:36:22.064Z,7.90
2018-11-14T10:38:49.975Z,8.00
2018-11-14T10:41:17.756Z,8.00
2018-11-14T10:43:45.510Z,8.10
2018-11-14T10:46:13.297Z,7.90
2018-11-14T10:48:41.051Z,7.80
2018-11-14T10:51:08.996Z,7.90
2018-11-14T10:53:36.887Z,8.20
2018-11-14T10:56:04.904Z,7.90
2018-11-14T10:58:32.706Z,7.80
2018-11-14T11:01:05.804Z,7.90
2018-11-14T11:03:36.803Z,7.90
2018-11-14T11:07:07.740Z,8.10
2018-11-14T11:09:41.032Z,8.00
2018-11-14T11:12:14.271Z,8.10
2018-11-14T11:14:47.552Z,8.20
2018-11-14T11:17:25.608Z,8.40
2018-11-14T11:19:53.623Z,8.10
2018-11-14T11:22:21.419Z,8.20
2018-11-14T11:24:49.158Z,8.20
2018-11-14T11:27:16.955Z,8.30
2018-11-14T11:29:44.743Z,8.00
2018-11-14T11:32:12.599Z,8.30
2018-11-14T11:34:40.356Z,8.70
2018-11-14T11:37:08.132Z,8.50
2018-11-14T11:39:35.879Z,8.50
2018-11-14T11:42:03.676Z,8.50
2018-11-14T11:44:31.499Z,8.70
2018-11-14T11:47:01.596Z,8.80
2018-11-14T11:49:30.169Z,8.80
2018-11-14T11:51:58.124Z,9.00
2018-11-14T11:54:26.283Z,8.90
2018-11-14T11:56:54.231Z,8.90
2018-11-14T11:59:22.202Z,8.70
2018-11-14T12:01:50.250Z,9.10
2018-11-14T12:04:24.482Z,8.70
2018-11-14T12:06:52.647Z,8.50
2018-11-14T12:09:20.702Z,8.30
2018-11-14T12:11:48.759Z,8.50
2018-11-14T12:14:17.118Z,8.70
2018-11-14T12:16:45.166Z,8.60
2018-11-14T12:19:13.357Z,8.40
2018-11-14T12:21:41.875Z,8.30
2018-11-14T12:24:09.993Z,8.20
2018-11-14T12:26:38.090Z,8.40
2018-11-14T12:29:06.026Z,8.40
2018-11-14T12:31:34.031Z,8.50
2018-11-14T12:34:02.146Z,8.50
2018-11-14T12:36:30.087Z,8.70
2018-11-14T12:38:58.113Z,8.80
2018-11-14T12:41:26.837Z,8.60
2018-11-14T12:43:55.579Z,8.50
2018-11-14T12:46:23.577Z,8.50
2018-11-14T12:48:51.467Z,8.80
2018-11-14T12:51:19.440Z,8.70
2018-11-14T12:53:49.196Z,8.70
2018-11-14T12:56:17.157Z,8.50
2018-11-14T12:58:44.931Z,8.60
2018-11-14T13:01:12.711Z,8.50
2018-11-14T13:03:40.730Z,8.30
2018-11-14T13:06:08.710Z,8.30
2018-11-14T13:08:36.748Z,8.40
2018-11-14T13:11:04.895Z,8.60
2018-11-14T13:13:38.392Z,8.40
2018-11-14T13:16:06.268Z,8.50
2018-11-14T13:18:34.147Z,8.40
2018-11-14T13:21:02.126Z,8.40
2018-11-14T13:23:29.960Z,8.80
2018-11-14T13:25:57.910Z,8.10
2018-11-14T13:28:25.674Z,8.10
2018-11-14T13:30:53.455Z,8.10
2018-11-14T13:33:21.254Z,8.10
2018-11-14T13:35:49.001Z,8.30
2018-11-14T13:38:16.844Z,8.40
2018-11-14T13:40:44.624Z,8.20
2018-11-14T13:43:12.433Z,8.20
2018-11-14T13:45:40.150Z,8.00
2018-11-14T13:48:07.929Z,8.00
2018-11-14T13:50:35.923Z,8.00
2018-11-14T13:53:03.530Z,8.00
2018-11-14T13:55:31.416Z,8.00
2018-11-14T13:57:59.538Z,7.90
2018-11-14T14:00:27.767Z,8.00
2018-11-14T14:02:55.668Z,8.00
2018-11-14T14:05:24.519Z,8.10
2018-11-14T14:07:52.348Z,8.10
2018-11-14T14:10:20.518Z,8.10
2018-11-14T14:12:49.654Z,8.20
2018-11-14T14:15:18.911Z,8.20
2018-11-14T14:17:47.312Z,8.10
2018-11-14T14:20:15.843Z,8.00
2018-11-14T14:22:43.611Z,7.90
2018-11-14T14:25:13.026Z,8.00
2018-11-14T14:27:40.779Z,7.80
2018-11-14T14:30:09.859Z,7.90
2018-11-14T14:32:38.402Z,8.00
2018-11-14T14:35:07.124Z,8.20
2018-11-14T14:37:34.873Z,8.30
2018-11-14T14:40:02.739Z,8.30
2018-11-14T14:42:30.582Z,8.30
2018-11-14T14:44:58.363Z,8.30
2018-11-14T14:47:26.126Z,8.30
2018-11-14T14:49:54.385Z,8.30
2018-11-14T14:52:22.128Z,8.30
2018-11-14T14:54:50.410Z,8.20
2018-11-14T14:57:18.152Z,8.30
2018-11-14T14:59:46.307Z,8.30
2018-11-14T15:02:14.190Z,8.20
2018-11-14T15:04:42.203Z,8.20
2018-11-14T15:07:09.942Z,8.20
2018-11-14T15:09:38.116Z,8.20
2018-11-14T15:12:06.709Z,8.10
2018-11-14T15:14:34.746Z,8.20
2018-11-14T15:17:02.511Z,8.10
2018-11-14T15:19:30.444Z,8.10
2018-11-14T15:21:58.216Z,8.00
2018-11-14T15:24:27.398Z,7.90
2018-11-14T15:26:55.292Z,7.90
2018-11-14T15:29:22.995Z,7.90
2018-11-14T15:31:50.762Z,7.90
2018-11-14T15:34:18.535Z,7.90
2018-11-14T15:36:46.347Z,7.80
2018-11-14T15:39:14.092Z,7.80
2018-11-14T15:41:41.986Z,7.80
2018-11-14T15:44:09.732Z,7.70
2018-11-14T15:46:37.515Z,7.70
2018-11-14T15:49:05.298Z,7.70
2018-11-14T15:51:33.208Z,7.70
2018-11-14T15:54:00.974Z,7.70
2018-11-14T15:56:28.718Z,7.70
2018-11-14T15:58:56.550Z,7.70
2018-11-14T16:01:24.309Z,7.50
2018-11-14T16:03:52.093Z,7.60
2018-11-14T16:06:19.863Z,7.60
2018-11-14T16:08:48.602Z,7.60
2018-11-14T16:11:16.355Z,7.60
2018-11-14T16:13:48.415Z,7.50
2018-11-14T16:16:16.194Z,7.50
2018-11-14T16:18:44.027Z,7.50
2018-11-14T16:21:11.800Z,7.50
2018-11-14T16:23:39.587Z,7.50
2018-11-14T16:26:07.338Z,7.50
2018-11-14T16:28:35.126Z,7.50
2018-11-14T16:31:02.915Z,7.40
2018-11-14T16:33:30.812Z,7.40
2018-11-14T16:35:58.591Z,7.30
2018-11-14T16:38:26.376Z,7.30
2018-11-14T16:40:54.211Z,7.20
2018-11-14T16:43:22.032Z,7.20
2018-11-14T16:45:49.793Z,7.20
2018-11-14T16:48:17.587Z,7.20
2018-11-14T16:50:45.397Z,7.20
2018-11-14T16:53:13.143Z,7.00
2018-11-14T16:55:41.010Z,6.90
2018-11-14T16:58:08.718Z,6.90
2018-11-14T17:00:36.486Z,7.00
2018-11-14T17:03:04.305Z,6.90
2018-11-14T17:05:32.682Z,6.90
2018-11-14T17:08:00.455Z,6.90
2018-11-14T17:10:28.234Z,7.00
2018-11-14T17:12:57.379Z,7.00
2018-11-14T17:15:26.015Z,7.00
2018-11-14T17:17:53.807Z,7.00
2018-11-14T17:20:22.240Z,6.90
2018-11-14T17:22:51.002Z,6.80
2018-11-14T17:25:19.106Z,6.60
2018-11-14T17:27:47.139Z,6.80
2018-11-14T17:30:16.296Z,6.80
2018-11-14T17:32:44.395Z,6.70
2018-11-14T17:35:12.898Z,6.50
2018-11-14T17:37:41.414Z,6.50
2018-11-14T17:40:11.594Z,6.40
2018-11-14T17:42:39.727Z,6.40
2018-11-14T17:45:08.640Z,6.40
2018-11-14T17:47:36.485Z,6.40
2018-11-14T17:50:04.857Z,6.40
2018-11-14T17:52:32.623Z,6.40
2018-11-14T17:55:00.494Z,6.30
2018-11-14T17:57:28.267Z,6.20
2018-11-14T17:59:56.014Z,6.30
2018-11-14T18:02:23.755Z,6.20
2018-11-14T18:04:51.539Z,6.20
2018-11-14T18:07:19.938Z,6.20
2018-11-14T18:09:47.668Z,6.10
2018-11-14T18:12:15.415Z,6.20
2018-11-14T18:14:43.344Z,6.30
2018-11-14T18:17:11.024Z,6.30
2018-11-14T18:19:39.503Z,6.40
2018-11-14T18:22:08.049Z,6.40
2018-11-14T18:24:35.883Z,6.40
2018-11-14T18:27:05.728Z,6.30
2018-11-14T18:29:35.182Z,6.40
2018-11-14T18:32:05.889Z,6.30
2018-11-14T18:34:35.360Z,6.30
2018-11-14T18:37:04.744Z,6.40
2018-11-14T18:39:34.331Z,6.40
2018-11-14T18:42:04.210Z,6.40
2018-11-14T18:44:34.764Z,6.40
2018-11-14T18:47:03.523Z,6.30
2018-11-14T18:49:33.098Z,6.40
2018-11-14T18:52:02.015Z,6.30
2018-11-14T18:54:31.124Z,6.40
2018-11-14T18:57:00.600Z,6.40
2018-11-14T18:59:29.891Z,6.40
2018-11-14T19:01:59.504Z,6.30
2018-11-14T19:04:28.151Z,6.30
2018-11-14T19:06:58.094Z,6.40
2018-11-14T19:09:27.199Z,6.30
2018-11-14T19:11:56.871Z,6.30
2018-11-14T19:14:26.504Z,6.30
2018-11-14T19:16:56.059Z,6.40
2018-11-14T19:19:25.131Z,6.40
2018-11-14T19:21:53.072Z,6.40
2018-11-14T19:24:21.616Z,6.40
2018-11-14T19:26:50.472Z,6.40
2018-11-14T19:29:19.206Z,6.30
2018-11-14T19:31:47.040Z,6.30
2018-11-14T19:34:16.426Z,6.30
2018-11-14T19:36:49.740Z,6.30
2018-11-14T19:39:18.526Z,6.30
2018-11-14T19:41:46.748Z,6.30
2018-11-14T19:44:16.643Z,6.30
2018-11-14T19:46:46.267Z,6.30
2018-11-14T19:49:16.119Z,6.30
2018-11-14T19:51:45.382Z,6.30
2018-11-14T19:54:14.476Z,6.30
2018-11-14T19:56:42.916Z,6.30
2018-11-14T19:59:12.420Z,6.20
2018-11-14T20:01:41.798Z,6.20
2018-11-14T20:04:11.600Z,6.20
2018-11-14T20:06:40.046Z,6.20
2018-11-14T20:09:08.822Z,6.20
2018-11-14T20:11:37.418Z,6.20
2018-11-14T20:14:05.261Z,6.20
2018-11-14T20:16:34.780Z,6.20
2018-11-14T20:19:03.478Z,6.20
2018-11-14T20:21:33.571Z,6.20
2018-11-14T20:24:02.768Z,6.10
2018-11-14T20:26:32.148Z,6.10
2018-11-14T20:29:00.462Z,6.10
2018-11-14T20:31:29.954Z,6.10
2018-11-14T20:33:58.868Z,6.10
2018-11-14T20:36:28.393Z,6.10
2018-11-14T20:38:57.162Z,6.10
2018-11-14T20:41:27.339Z,6.10
2018-11-14T20:43:55.749Z,6.10
2018-11-14T20:46:24.468Z,6.10
2018-11-14T20:48:55.192Z,6.10
2018-11-14T20:51:24.283Z,6.10
2018-11-14T20:53:53.454Z,6.10
2018-11-14T20:56:22.518Z,6.10
2018-11-14T20:58:52.344Z,6.10
2018-11-14T21:01:20.164Z,6.10
2018-11-14T21:03:50.661Z,6.10
2018-11-14T21:06:19.841Z,6.20
2018-11-14T21:08:48.071Z,6.30
2018-11-14T21:11:18.098Z,6.50
2018-11-14T21:13:46.959Z,6.40
2018-11-14T21:16:16.508Z,6.30
2018-11-14T21:18:45.594Z,6.30
2018-11-14T21:21:14.209Z,6.40
2018-11-14T21:23:43.495Z,6.40
2018-11-14T21:26:12.350Z,6.40
2018-11-14T21:28:40.089Z,6.50
2018-11-14T21:31:07.854Z,6.50
2018-11-14T21:33:35.626Z,6.50
2018-11-14T21:36:03.407Z,6.50
2018-11-14T21:38:31.187Z,6.50
2018-11-14T21:40:58.954Z,6.50
2018-11-14T21:43:26.728Z,6.50
2018-11-14T21:45:54.520Z,6.40
2018-11-14T21:48:22.267Z,6.30
2018-11-14T21:50:50.076Z,6.30
2018-11-14T21:53:17.952Z,6.40
2018-11-14T21:55:45.658Z,6.50
2018-11-14T21:58:13.427Z,6.30
2018-11-14T22:00:41.660Z,6.30
2018-11-14T22:03:10.007Z,6.40
2018-11-14T22:05:38.115Z,6.30
2018-11-14T22:08:05.939Z,6.20
2018-11-14T22:10:33.711Z,6.20
2018-11-14T22:13:01.512Z,6.20
2018-11-14T22:15:29.958Z,6.20
2018-11-14T22:17:57.821Z,6.20
2018-11-14T22:20:26.427Z,6.20
2018-11-14T22:22:54.897Z,6.30
2018-11-14T22:25:23.767Z,6.40
2018-11-14T22:27:51.677Z,6.30
2018-11-14T22:30:21.544Z,6.30
2018-11-14T22:32:49.302Z,6.40
2018-11-14T22:35:18.380Z,6.40
2018-11-14T22:37:46.098Z,6.40
2018-11-14T22:40:15.296Z,6.50
2018-11-14T22:42:43.604Z,6.50
2018-11-14T22:45:12.942Z,6.50
2018-11-14T22:47:41.326Z,6.60
2018-11-14T22:50:10.142Z,6.40
2018-11-14T22:52:38.279Z,6.40
2018-11-14T22:55:06.615Z,6.50
2018-11-14T22:57:34.383Z,6.60
2018-11-14T23:00:02.736Z,6.60
2018-11-14T23:02:30.469Z,6.70
2018-11-14T23:04:58.258Z,6.70
2018-11-14T23:07:26.022Z,6.70
2018-11-14T23:09:53.891Z,6.60
2018-11-14T23:12:21.563Z,6.70
2018-11-14T23:14:49.362Z,6.70
2018-11-14T23:17:17.090Z,6.70
2018-11-14T23:19:44.828Z,6.60
2018-11-14T23:22:12.629Z,6.50
2018-11-14T23:24:40.879Z,6.60
2018-11-14T23:27:08.663Z,6.50
2018-11-14T23:29:36.391Z,6.50
2018-11-14T23:32:04.235Z,6.60
2018-11-14T23:34:32.007Z,6.50
2018-11-14T23:36:59.917Z,6.50
2018-11-14T23:39:27.658Z,6.50
2018-11-14T23:41:55.462Z,6.60
2018-11-14T23:44:23.211Z,6.60
2018-11-14T23:46:50.979Z,6.60
2018-11-14T23:49:18.820Z,6.60
2018-11-14T23:51:46.590Z,6.60
2018-11-14T23:54:14.338Z,6.60
2018-11-14T23:56:42.115Z,6.50
2018-11-14T23:59:09.843Z,6.50
